Time;durP1;ratioP1;P1;durP2;ratioP2;P2;SDS_P1;SDS_P2;PMS_P1;PMS_P2;Temp;Humidity;BMP_temperature;BMP_pressure;BME280_temperature;BME280_humidity;BME280_pressure;Samples;Min_cycle;Max_cycle;Signal;HPM_P1;HPM_P2
2021/03/07 00:00:39;;;;;;;4.37;3.97;;;;;;;;;;4976867;28;20462;-62
2021/03/07 00:03:06;;;;;;;6.00;4.77;;;;;;;;;;4977501;28;20843;-62
2021/03/07 00:05:33;;;;;;;4.93;4.20;;;;;;;;;;4976442;28;20466;-62
2021/03/07 00:08:00;;;;;;;7.70;4.63;;;;;;;;;;4975946;28;20479;-62
2021/03/07 00:10:27;;;;;;;4.87;4.47;;;;;;;;;;4976389;28;20473;-62
2021/03/07 00:12:53;;;;;;;6.23;4.03;;;;;;;;;;4976217;28;20545;-64
2021/03/07 00:15:21;;;;;;;7.07;4.53;;;;;;;;;;4976386;28;20459;-62
2021/03/07 00:17:48;;;;;;;6.53;4.13;;;;;;;;;;4975869;28;20939;-62
2021/03/07 00:20:16;;;;;;;5.07;3.97;;;;;;;;;;4976286;28;20821;-62
2021/03/07 00:22:44;;;;;;;6.40;4.33;;;;;;;;;;4975614;28;20479;-62
2021/03/07 00:25:12;;;;;;;4.43;3.87;;;;;;;;;;4976096;28;20466;-62
2021/03/07 00:27:40;;;;;;;5.00;4.37;;;;;;;;;;4975781;28;20990;-62
2021/03/07 00:30:07;;;;;;;4.60;3.97;;;;;;;;;;4975884;28;20872;-62
2021/03/07 00:32:34;;;;;;;4.33;3.97;;;;;;;;;;4974580;28;20475;-63
2021/03/07 00:35:01;;;;;;;4.10;3.70;;;;;;;;;;4988677;28;20508;-62
2021/03/07 00:37:27;;;;;;;5.73;3.70;;;;;;;;;;4988417;28;20954;-62
2021/03/07 00:39:55;;;;;;;5.30;4.10;;;;;;;;;;4975186;28;20506;-62
2021/03/07 00:42:21;;;;;;;5.30;4.10;;;;;;;;;;4975656;28;20475;-62
2021/03/07 00:44:48;;;;;;;3.93;3.63;;;;;;;;;;4981512;28;20462;-62
2021/03/07 00:47:15;;;;;;;4.00;3.60;;;;;;;;;;4975371;28;20505;-63
2021/03/07 00:49:41;;;;;;;4.77;3.70;;;;;;;;;;4975686;28;20451;-62
2021/03/07 00:52:08;;;;;;;3.73;3.43;;;;;;;;;;4975324;28;20476;-62
2021/03/07 00:54:35;;;;;;;6.70;4.47;;;;;;;;;;4975254;28;20477;-64
2021/03/07 00:57:02;;;;;;;3.70;3.23;;;;;;;;;;4978065;28;20478;-62
2021/03/07 00:59:29;;;;;;;6.57;4.10;;;;;;;;;;4986646;28;20456;-63
2021/03/07 01:01:55;;;;;;;5.43;3.60;;;;;;;;;;4975228;28;20974;-63
2021/03/07 01:04:22;;;;;;;5.13;3.57;;;;;;;;;;4975100;28;20451;-61
2021/03/07 01:06:49;;;;;;;5.33;3.77;;;;;;;;;;4974828;28;20971;-64
2021/03/07 01:09:16;;;;;;;7.30;3.70;;;;;;;;;;4975512;28;20463;-62
2021/03/07 01:11:42;;;;;;;4.20;3.90;;;;;;;;;;4974894;28;20471;-62
2021/03/07 01:14:10;;;;;;;5.10;3.93;;;;;;;;;;4975377;28;20470;-65
2021/03/07 01:16:37;;;;;;;4.00;3.60;;;;;;;;;;4975093;28;20478;-62
2021/03/07 01:19:04;;;;;;;5.40;4.00;;;;;;;;;;4975017;28;20997;-62
2021/03/07 01:21:31;;;;;;;5.53;4.00;;;;;;;;;;4996012;23;21161;31
2021/03/07 01:23:57;;;;;;;3.83;3.53;;;;;;;;;;4982859;28;20478;-65
2021/03/07 01:26:24;;;;;;;5.33;4.23;;;;;;;;;;4994056;28;20442;-65
2021/03/07 01:28:50;;;;;;;4.30;3.70;;;;;;;;;;4993930;28;20486;-65
2021/03/07 01:31:18;;;;;;;5.00;3.50;;;;;;;;;;4993619;28;20458;-65
2021/03/07 01:33:44;;;;;;;3.73;3.43;;;;;;;;;;4995204;28;20517;-65
2021/03/07 01:36:11;;;;;;;3.77;3.47;;;;;;;;;;5013557;28;20450;-65
2021/03/07 01:38:40;;;;;;;4.60;4.10;;;;;;;;;;5006543;28;20462;-65
2021/03/07 01:41:07;;;;;;;4.53;4.13;;;;;;;;;;4974944;28;20463;-65
2021/03/07 01:43:33;;;;;;;4.83;3.60;;;;;;;;;;4977901;28;20478;-65
2021/03/07 01:46:00;;;;;;;5.53;3.90;;;;;;;;;;4993905;28;20509;-63
2021/03/07 01:48:27;;;;;;;5.57;3.83;;;;;;;;;;4993063;28;20478;-64
2021/03/07 01:50:54;;;;;;;4.13;3.73;;;;;;;;;;4994019;28;20465;-64
2021/03/07 01:53:21;;;;;;;4.87;4.13;;;;;;;;;;4993975;28;20466;-64
2021/03/07 01:55:50;;;;;;;5.60;3.77;;;;;;;;;;4988221;28;20454;-64
2021/03/07 01:58:19;;;;;;;4.83;3.43;;;;;;;;;;4994289;28;20502;-64
2021/03/07 02:00:45;;;;;;;4.83;3.80;;;;;;;;;;4993516;28;20501;-64
2021/03/07 02:03:12;;;;;;;4.40;3.67;;;;;;;;;;4993744;28;20490;-64
2021/03/07 02:05:39;;;;;;;3.60;3.10;;;;;;;;;;4989499;28;20451;-64
2021/03/07 02:08:07;;;;;;;4.00;3.57;;;;;;;;;;5002225;28;20488;-65
2021/03/07 02:10:34;;;;;;;5.90;3.50;;;;;;;;;;4977669;28;20514;-64
2021/03/07 02:13:03;;;;;;;3.90;3.60;;;;;;;;;;4974858;28;20494;-64
2021/03/07 02:15:31;;;;;;;4.40;4.00;;;;;;;;;;4979550;28;20458;-64
2021/03/07 02:17:58;;;;;;;4.53;4.00;;;;;;;;;;4973765;28;20447;-64
2021/03/07 02:20:26;;;;;;;4.20;3.40;;;;;;;;;;4993686;28;20459;-64
2021/03/07 02:22:58;;;;;;;9.33;4.13;;;;;;;;;;4992972;28;20482;-64
2021/03/07 02:25:28;;;;;;;4.53;3.50;;;;;;;;;;4992884;28;20456;-63
2021/03/07 02:27:55;;;;;;;4.70;4.30;;;;;;;;;;4993095;28;20478;-64
2021/03/07 02:30:22;;;;;;;7.20;4.30;;;;;;;;;;4993043;28;20451;-63
2021/03/07 02:32:53;;;;;;;4.33;3.93;;;;;;;;;;4992902;28;20474;-64
2021/03/07 02:35:21;;;;;;;3.90;3.60;;;;;;;;;;4982988;28;20455;-64
2021/03/07 02:37:51;;;;;;;4.03;3.60;;;;;;;;;;4979531;28;20454;-64
2021/03/07 02:40:19;;;;;;;4.83;4.30;;;;;;;;;;4993477;28;20459;-64
2021/03/07 02:42:47;;;;;;;4.17;3.87;;;;;;;;;;4993002;28;20467;-64
2021/03/07 02:45:17;;;;;;;4.27;3.87;;;;;;;;;;4990796;28;20461;-64
2021/03/07 02:47:45;;;;;;;4.77;3.83;;;;;;;;;;4992616;28;20498;-65
2021/03/07 02:50:14;;;;;;;5.07;3.53;;;;;;;;;;4992421;28;20455;-65
2021/03/07 02:52:43;;;;;;;4.07;3.77;;;;;;;;;;4992582;28;20470;-65
2021/03/07 02:55:10;;;;;;;4.63;4.20;;;;;;;;;;4982788;28;20456;-65
2021/03/07 02:57:37;;;;;;;5.77;4.17;;;;;;;;;;4979121;28;20506;-65
2021/03/07 03:00:08;;;;;;;5.47;4.30;;;;;;;;;;4990590;28;20450;-65
2021/03/07 03:02:35;;;;;;;5.70;3.80;;;;;;;;;;5012522;28;20488;-65
2021/03/07 03:05:02;;;;;;;6.37;3.80;;;;;;;;;;5003826;28;20450;-64
2021/03/07 03:07:29;;;;;;;4.37;3.80;;;;;;;;;;4992411;28;20489;-65
2021/03/07 03:09:57;;;;;;;4.90;4.50;;;;;;;;;;4988294;28;20448;-64
2021/03/07 03:12:24;;;;;;;5.03;4.07;;;;;;;;;;4993072;28;20485;-65
2021/03/07 03:14:51;;;;;;;4.30;3.90;;;;;;;;;;4992316;28;20454;-65
2021/03/07 03:17:19;;;;;;;4.00;3.70;;;;;;;;;;4993037;28;20446;-64
2021/03/07 03:19:47;;;;;;;5.17;4.00;;;;;;;;;;4989213;28;20452;-64
2021/03/07 03:22:13;;;;;;;5.97;4.50;;;;;;;;;;4991450;28;20482;-64
2021/03/07 03:24:40;;;;;;;6.13;4.00;;;;;;;;;;4990130;28;20459;-64
2021/03/07 03:27:09;;;;;;;5.57;4.53;;;;;;;;;;4972933;28;20455;-64
2021/03/07 03:29:35;;;;;;;6.30;4.13;;;;;;;;;;4978784;28;20459;-65
2021/03/07 03:32:02;;;;;;;3.97;3.67;;;;;;;;;;4972969;28;21007;-65
2021/03/07 03:34:29;;;;;;;4.13;3.80;;;;;;;;;;4977848;28;20443;-65
2021/03/07 03:36:56;;;;;;;7.10;3.93;;;;;;;;;;4972949;28;20451;-65
2021/03/07 03:39:24;;;;;;;4.20;3.90;;;;;;;;;;4976710;28;20455;-64
2021/03/07 03:41:52;;;;;;;6.07;3.70;;;;;;;;;;4982967;28;20471;-65
2021/03/07 03:44:21;;;;;;;4.57;3.90;;;;;;;;;;4992199;28;20458;-64
2021/03/07 03:46:49;;;;;;;4.87;4.40;;;;;;;;;;4991570;28;20454;-65
2021/03/07 03:49:18;;;;;;;5.50;4.63;;;;;;;;;;4991784;28;20544;-65
2021/03/07 03:51:46;;;;;;;4.70;3.93;;;;;;;;;;4991798;28;20466;-65
2021/03/07 03:54:13;;;;;;;6.30;4.30;;;;;;;;;;4992260;28;20454;-64
2021/03/07 03:56:40;;;;;;;5.40;4.40;;;;;;;;;;4986585;28;20457;-64
2021/03/07 03:59:08;;;;;;;4.43;4.03;;;;;;;;;;4991312;28;20878;-64
2021/03/07 04:01:36;;;;;;;4.90;4.20;;;;;;;;;;4992077;28;20501;-64
2021/03/07 04:04:04;;;;;;;4.30;4.00;;;;;;;;;;4991160;28;20458;-64
2021/03/07 04:06:31;;;;;;;4.30;4.00;;;;;;;;;;4991519;28;20934;-64
2021/03/07 04:08:59;;;;;;;4.90;4.50;;;;;;;;;;4991277;28;20537;-64
2021/03/07 04:11:26;;;;;;;4.50;4.07;;;;;;;;;;4992118;28;20454;-64
2021/03/07 04:13:53;;;;;;;5.37;4.23;;;;;;;;;;4991218;28;20481;-64
2021/03/07 04:16:20;;;;;;;5.77;4.17;;;;;;;;;;4991754;28;20451;-65
2021/03/07 04:18:46;;;;;;;4.87;4.43;;;;;;;;;;4990787;28;20454;-65
2021/03/07 04:21:14;;;;;;;6.00;4.63;;;;;;;;;;4992415;28;20445;-65
2021/03/07 04:23:40;;;;;;;5.60;5.10;;;;;;;;;;4990561;28;20478;-65
2021/03/07 04:26:08;;;;;;;5.33;4.70;;;;;;;;;;4991907;28;20447;-65
2021/03/07 04:28:35;;;;;;;5.70;4.20;;;;;;;;;;4990428;28;20533;-65
2021/03/07 04:31:01;;;;;;;4.97;4.53;;;;;;;;;;4992003;28;20446;-64
2021/03/07 04:33:28;;;;;;;5.00;4.50;;;;;;;;;;4981338;28;20482;-64
2021/03/07 04:35:55;;;;;;;6.00;5.40;;;;;;;;;;4995158;28;20454;-64
2021/03/07 04:38:21;;;;;;;5.70;5.20;;;;;;;;;;4993918;28;20853;-64
2021/03/07 04:40:48;;;;;;;5.27;4.77;;;;;;;;;;4995436;28;20815;-64
2021/03/07 04:43:18;;;;;;;5.53;4.77;;;;;;;;;;4994324;28;20470;-64
2021/03/07 04:45:45;;;;;;;6.27;5.53;;;;;;;;;;4979877;28;20477;-65
2021/03/07 04:48:11;;;;;;;7.60;5.63;;;;;;;;;;4995587;28;20481;-64
2021/03/07 04:50:38;;;;;;;5.50;5.10;;;;;;;;;;4994767;28;20455;-65
2021/03/07 04:53:05;;;;;;;5.10;4.70;;;;;;;;;;4995411;28;20477;-64
2021/03/07 04:55:31;;;;;;;4.90;4.50;;;;;;;;;;4990272;28;20454;-65
2021/03/07 04:57:58;;;;;;;7.60;5.00;;;;;;;;;;4995429;28;20473;-65
2021/03/07 05:00:25;;;;;;;5.93;5.40;;;;;;;;;;4978817;28;20459;-64
2021/03/07 05:02:52;;;;;;;5.50;4.97;;;;;;;;;;4975925;28;20817;-66
2021/03/07 05:05:19;;;;;;;5.70;5.20;;;;;;;;;;4990096;28;20455;-64
2021/03/07 05:07:46;;;;;;;7.67;6.50;;;;;;;;;;4989976;28;20477;-65
2021/03/07 05:10:12;;;;;;;6.80;6.20;;;;;;;;;;4982196;28;20517;-65
2021/03/07 05:12:39;;;;;;;6.13;5.53;;;;;;;;;;4990334;28;20474;-64
2021/03/07 05:15:07;;;;;;;6.13;5.50;;;;;;;;;;4997928;28;20908;-64
2021/03/07 05:17:34;;;;;;;6.13;5.63;;;;;;;;;;4998982;28;20454;-64
2021/03/07 05:20:01;;;;;;;7.00;6.33;;;;;;;;;;4990698;28;20946;-64
2021/03/07 05:22:28;;;;;;;6.43;5.93;;;;;;;;;;4990396;28;20485;-64
2021/03/07 05:24:54;;;;;;;6.67;5.97;;;;;;;;;;4998402;28;20458;-65
2021/03/07 05:27:21;;;;;;;6.07;5.30;;;;;;;;;;4999250;28;20838;-64
2021/03/07 05:29:48;;;;;;;5.93;5.43;;;;;;;;;;4990698;28;20514;-64
2021/03/07 05:32:14;;;;;;;6.13;5.53;;;;;;;;;;4989439;28;20473;-64
2021/03/07 05:34:42;;;;;;;6.37;5.77;;;;;;;;;;4994892;28;20469;-64
2021/03/07 05:37:08;;;;;;;6.43;5.93;;;;;;;;;;4994043;28;20822;-65
2021/03/07 05:39:35;;;;;;;5.57;5.17;;;;;;;;;;5000801;28;20475;-64
2021/03/07 05:42:03;;;;;;;6.60;6.10;;;;;;;;;;4993718;28;20466;-64
2021/03/07 05:44:29;;;;;;;6.00;5.43;;;;;;;;;;4992493;28;20459;-64
2021/03/07 05:46:56;;;;;;;6.20;5.70;;;;;;;;;;4993539;28;20950;-66
2021/03/07 05:49:22;;;;;;;7.10;6.10;;;;;;;;;;4993743;28;20499;-65
2021/03/07 05:51:50;;;;;;;6.53;6.03;;;;;;;;;;4994130;28;20876;-65
2021/03/07 05:54:17;;;;;;;7.40;6.80;;;;;;;;;;4995031;28;20457;-65
2021/03/07 05:56:48;;;;;;;6.50;5.90;;;;;;;;;;4980174;28;20450;-65
2021/03/07 05:59:15;;;;;;;6.50;6.00;;;;;;;;;;4996454;28;20566;-65
2021/03/07 06:01:42;;;;;;;6.80;6.10;;;;;;;;;;4994603;28;20462;-66
2021/03/07 06:04:08;;;;;;;6.60;6.00;;;;;;;;;;4996496;28;20460;-64
2021/03/07 06:06:35;;;;;;;7.63;6.57;;;;;;;;;;4996047;28;20818;-64
2021/03/07 06:09:22;;;;;;;6.27;5.70;;;;;;;;;;4997609;28;20997;-66
2021/03/07 06:11:50;;;;;;;8.20;6.17;;;;;;;;;;4995682;28;20454;-65
2021/03/07 06:14:20;;;;;;;6.40;5.90;;;;;;;;;;4997264;28;20450;-64
2021/03/07 06:17:01;;;;;;;6.70;6.00;;;;;;;;;;4996496;28;20520;-64
2021/03/07 06:19:27;;;;;;;6.77;5.93;;;;;;;;;;5007414;28;20453;-65
2021/03/07 06:21:54;;;;;;;6.40;5.80;;;;;;;;;;4988169;28;20478;-66
2021/03/07 06:24:35;;;;;;;8.00;5.43;;;;;;;;;;4997716;28;20526;-64
2021/03/07 06:27:09;;;;;;;6.40;5.90;;;;;;;;;;4996542;28;20451;-64
2021/03/07 06:29:37;;;;;;;6.23;5.63;;;;;;;;;;4996707;28;20501;-63
2021/03/07 06:32:15;;;;;;;7.10;6.57;;;;;;;;;;4997441;28;20493;-63
2021/03/07 06:34:48;;;;;;;7.67;6.40;;;;;;;;;;4999861;28;20787;-63
2021/03/07 06:37:15;;;;;;;6.83;6.23;;;;;;;;;;4973922;28;20459;-63
2021/03/07 06:39:42;;;;;;;6.20;5.60;;;;;;;;;;4986825;28;20478;-63
2021/03/07 06:42:10;;;;;;;7.27;6.57;;;;;;;;;;4986220;28;20475;-64
2021/03/07 06:44:37;;;;;;;9.77;6.20;;;;;;;;;;4993269;28;20473;-66
2021/03/07 06:47:09;;;;;;;6.10;5.60;;;;;;;;;;4992672;28;20513;-63
2021/03/07 06:49:35;;;;;;;9.03;6.17;;;;;;;;;;4992483;28;21063;-63
2021/03/07 06:52:12;;;;;;;7.10;6.40;;;;;;;;;;4976779;28;20517;-63
2021/03/07 06:54:39;;;;;;;7.40;6.13;;;;;;;;;;4999773;28;20449;-64
2021/03/07 06:57:08;;;;;;;6.53;5.57;;;;;;;;;;4977692;28;20463;-63
2021/03/07 06:59:35;;;;;;;6.53;6.00;;;;;;;;;;4992874;28;20509;-63
2021/03/07 07:02:01;;;;;;;6.93;6.33;;;;;;;;;;4977295;28;20495;-63
2021/03/07 07:04:39;;;;;;;6.80;6.23;;;;;;;;;;4985452;28;20457;-63
2021/03/07 07:07:06;;;;;;;6.53;5.93;;;;;;;;;;4992935;28;20468;-63
2021/03/07 07:09:33;;;;;;;6.97;6.30;;;;;;;;;;4991063;28;21038;-63
2021/03/07 07:12:00;;;;;;;6.93;6.27;;;;;;;;;;4992255;28;21015;-63
2021/03/07 07:14:32;;;;;;;7.10;6.40;;;;;;;;;;5004547;28;20454;-63
2021/03/07 07:16:59;;;;;;;7.00;6.50;;;;;;;;;;4976641;28;20453;-62
2021/03/07 07:19:25;;;;;;;8.50;6.53;;;;;;;;;;4992705;28;20451;-65
2021/03/07 07:21:52;;;;;;;7.10;6.27;;;;;;;;;;4991229;28;20486;-64
2021/03/07 07:24:19;;;;;;;7.47;6.87;;;;;;;;;;4993126;28;20431;-66
2021/03/07 07:26:46;;;;;;;7.00;6.30;;;;;;;;;;4976752;28;20966;-64
2021/03/07 07:29:13;;;;;;;6.27;5.60;;;;;;;;;;5004148;28;20529;-65
2021/03/07 07:31:45;;;;;;;7.83;5.63;;;;;;;;;;4981193;28;20452;-64
2021/03/07 07:34:13;;;;;;;10.03;5.67;;;;;;;;;;4992414;28;20434;-64
2021/03/07 07:36:43;;;;;;;9.97;6.00;;;;;;;;;;4991876;28;20455;-64
2021/03/07 07:39:11;;;;;;;8.67;5.97;;;;;;;;;;4992413;28;20447;-65
2021/03/07 07:41:39;;;;;;;5.03;2.73;;;;;;;;;;4983184;28;20458;-65
2021/03/07 07:44:06;;;;;;;5.33;2.50;;;;;;;;;;4990895;28;20513;-69
2021/03/07 07:46:33;;;;;;;6.03;3.40;;;;;;;;;;4991321;28;20493;-67
2021/03/07 07:49:01;;;;;;;3.73;3.20;;;;;;;;;;4987153;28;20482;-68
2021/03/07 07:51:35;;;;;;;3.20;1.90;;;;;;;;;;4980879;28;20515;-67
2021/03/07 07:54:03;;;;;;;6.50;2.10;;;;;;;;;;4997319;28;20453;-68
2021/03/07 07:56:40;;;;;;;4.40;2.33;;;;;;;;;;4985146;28;20463;-68
2021/03/07 07:59:06;;;;;;;3.00;2.60;;;;;;;;;;4991247;28;20504;-67
2021/03/07 08:01:49;;;;;;;3.97;2.10;;;;;;;;;;4992168;28;20454;-68
2021/03/07 08:04:36;;;;;;;5.57;1.83;;;;;;;;;;4980088;28;20955;-68
2021/03/07 08:07:04;;;;;;;3.87;2.00;;;;;;;;;;4973540;28;20466;-67
2021/03/07 08:09:41;;;;;;;3.87;1.77;;;;;;;;;;4989050;28;20478;-68
2021/03/07 08:12:26;;;;;;;1.73;1.33;;;;;;;;;;4995908;28;20501;-68
2021/03/07 08:14:52;;;;;;;2.30;1.43;;;;;;;;;;4991499;28;20454;-66
2021/03/07 08:17:43;;;;;;;2.63;1.60;;;;;;;;;;5002681;28;20456;-67
2021/03/07 08:20:11;;;;;;;2.60;1.30;;;;;;;;;;4979056;28;20448;-68
2021/03/07 08:22:52;;;;;;;4.27;1.80;;;;;;;;;;4984900;28;20490;-67
2021/03/07 08:25:19;;;;;;;4.23;1.67;;;;;;;;;;4978476;28;20451;-68
2021/03/07 08:27:45;;;;;;;3.03;1.80;;;;;;;;;;4977484;28;20451;-67
2021/03/07 08:30:15;;;;;;;3.53;1.50;;;;;;;;;;4982263;28;20451;-67
2021/03/07 08:32:42;;;;;;;3.83;1.83;;;;;;;;;;4993247;28;20825;-67
2021/03/07 08:35:14;;;;;;;5.20;2.80;;;;;;;;;;4990071;28;20502;-66
2021/03/07 08:37:41;;;;;;;6.07;4.13;;;;;;;;;;4990915;28;20464;-65
2021/03/07 08:40:26;;;;;;;8.03;3.93;;;;;;;;;;4994777;28;20484;-64
2021/03/07 08:42:53;;;;;;;8.60;4.27;;;;;;;;;;4990332;28;20512;-65
2021/03/07 08:45:21;;;;;;;7.60;4.10;;;;;;;;;;4983675;28;20447;-65
2021/03/07 08:47:57;;;;;;;5.10;4.30;;;;;;;;;;4987423;28;20457;-66
2021/03/07 08:50:26;;;;;;;5.80;4.23;;;;;;;;;;4995807;28;20450;-63
2021/03/07 08:52:52;;;;;;;5.73;4.50;;;;;;;;;;4985229;28;20482;-65
2021/03/07 08:55:19;;;;;;;4.70;4.13;;;;;;;;;;4975599;28;20454;-65
2021/03/07 08:57:46;;;;;;;6.23;4.20;;;;;;;;;;4991759;28;20453;-65
2021/03/07 09:00:14;;;;;;;9.30;4.77;;;;;;;;;;4983557;28;20455;-65
2021/03/07 09:02:41;;;;;;;8.00;4.87;;;;;;;;;;4992624;28;20485;-64
2021/03/07 09:05:09;;;;;;;7.30;4.13;;;;;;;;;;4980193;28;20458;-66
2021/03/07 09:07:37;;;;;;;6.90;4.47;;;;;;;;;;4989414;28;20455;-66
2021/03/07 09:10:04;;;;;;;6.10;4.60;;;;;;;;;;4989818;28;20440;-65
2021/03/07 09:12:30;;;;;;;8.30;4.83;;;;;;;;;;4988302;28;20548;-64
2021/03/07 09:15:07;;;;;;;6.13;5.10;;;;;;;;;;4993300;28;20470;-65
2021/03/07 09:17:36;;;;;;;4.87;4.50;;;;;;;;;;5002435;28;20437;-66
2021/03/07 09:20:02;;;;;;;5.87;4.77;;;;;;;;;;4994351;28;20440;-65
2021/03/07 09:22:30;;;;;;;9.33;5.00;;;;;;;;;;4974913;28;20536;-65
2021/03/07 09:25:02;;;;;;;5.23;4.53;;;;;;;;;;4984750;28;20455;-65
2021/03/07 09:27:29;;;;;;;5.77;5.17;;;;;;;;;;4993943;28;20572;-66
2021/03/07 09:29:57;;;;;;;5.87;3.97;;;;;;;;;;4992900;28;21048;-67
2021/03/07 09:32:24;;;;;;;5.53;3.70;;;;;;;;;;4974681;28;20476;-66
2021/03/07 09:34:51;;;;;;;4.27;3.83;;;;;;;;;;4982016;28;20454;-65
2021/03/07 09:37:17;;;;;;;4.60;4.17;;;;;;;;;;4989671;28;20453;-65
2021/03/07 09:39:45;;;;;;;4.90;3.80;;;;;;;;;;5002666;28;20483;-66
2021/03/07 09:42:13;;;;;;;5.37;4.60;;;;;;;;;;4983743;28;20517;-66
2021/03/07 09:44:41;;;;;;;5.53;4.57;;;;;;;;;;4993081;28;21006;-66
2021/03/07 09:47:08;;;;;;;5.90;4.60;;;;;;;;;;4994646;28;20459;-66
2021/03/07 09:49:35;;;;;;;5.60;3.77;;;;;;;;;;4993700;28;20545;-66
2021/03/07 09:52:02;;;;;;;4.70;4.27;;;;;;;;;;4993536;28;20986;-65
2021/03/07 09:54:28;;;;;;;7.17;4.83;;;;;;;;;;4997611;28;20459;-65
2021/03/07 09:56:55;;;;;;;4.93;3.90;;;;;;;;;;4994592;28;20451;-65
2021/03/07 09:59:25;;;;;;;6.47;3.93;;;;;;;;;;4998717;28;20478;-65
2021/03/07 10:01:53;;;;;;;4.37;3.70;;;;;;;;;;4989749;28;20479;-65
2021/03/07 10:04:31;;;;;;;8.00;4.33;;;;;;;;;;4993337;28;20457;-65
2021/03/07 10:06:57;;;;;;;6.77;4.20;;;;;;;;;;4992811;28;20457;-64
2021/03/07 10:09:24;;;;;;;4.60;4.13;;;;;;;;;;4993365;28;21071;-65
2021/03/07 10:11:58;;;;;;;4.73;4.20;;;;;;;;;;4991922;28;20509;-65
2021/03/07 10:14:26;;;;;;;5.03;3.90;;;;;;;;;;4993365;28;20450;-65
2021/03/07 10:16:53;;;;;;;4.63;4.10;;;;;;;;;;4991663;28;20467;-65
2021/03/07 10:19:20;;;;;;;5.30;4.07;;;;;;;;;;4994092;28;20450;-65
2021/03/07 10:21:47;;;;;;;4.80;4.07;;;;;;;;;;4979909;28;20454;-66
2021/03/07 10:24:14;;;;;;;5.20;3.80;;;;;;;;;;4995170;28;20434;-66
2021/03/07 10:26:42;;;;;;;4.43;4.00;;;;;;;;;;4998480;28;20857;-66
2021/03/07 10:29:19;;;;;;;6.17;4.00;;;;;;;;;;4989105;28;20558;-63
2021/03/07 10:31:59;;;;;;;5.30;4.03;;;;;;;;;;4992448;28;20484;-64
2021/03/07 10:34:30;;;;;;;5.60;4.93;;;;;;;;;;4991867;28;20953;-66
2021/03/07 10:36:57;;;;;;;6.13;4.30;;;;;;;;;;4992644;28;20443;-63
2021/03/07 10:39:24;;;;;;;5.40;4.90;;;;;;;;;;4992132;28;20458;-64
2021/03/07 10:41:50;;;;;;;6.73;4.60;;;;;;;;;;4992674;28;20450;-62
2021/03/07 10:44:24;;;;;;;7.33;4.70;;;;;;;;;;4987597;28;20458;-64
2021/03/07 10:46:51;;;;;;;5.57;4.30;;;;;;;;;;4991796;28;20953;-64
2021/03/07 10:49:19;;;;;;;6.13;4.93;;;;;;;;;;4989797;28;20537;-65
2021/03/07 10:51:46;;;;;;;13.23;6.33;;;;;;;;;;4977844;28;20447;-64
2021/03/07 10:54:13;;;;;;;7.97;5.10;;;;;;;;;;4977014;28;20450;-65
2021/03/07 10:56:40;;;;;;;6.90;5.50;;;;;;;;;;4993970;28;20484;-64
2021/03/07 10:59:07;;;;;;;5.83;5.13;;;;;;;;;;5013235;28;20449;-65
2021/03/07 11:01:34;;;;;;;7.03;4.93;;;;;;;;;;5012200;28;20457;-64
2021/03/07 11:04:01;;;;;;;6.23;5.33;;;;;;;;;;5012629;28;20457;-63
2021/03/07 11:06:28;;;;;;;6.67;5.50;;;;;;;;;;5011902;28;20446;-63
2021/03/07 11:08:55;;;;;;;5.87;5.37;;;;;;;;;;5012461;28;20485;-65
2021/03/07 11:11:21;;;;;;;5.80;5.30;;;;;;;;;;5011942;28;20460;-64
2021/03/07 11:13:48;;;;;;;6.43;5.23;;;;;;;;;;5000265;28;20474;-65
2021/03/07 11:16:15;;;;;;;8.07;6.00;;;;;;;;;;4994416;28;20791;-65
2021/03/07 11:18:41;;;;;;;8.63;6.20;;;;;;;;;;4994395;28;20460;-63
2021/03/07 11:21:08;;;;;;;8.07;5.50;;;;;;;;;;4992650;28;20446;-65
2021/03/07 11:23:35;;;;;;;6.57;5.97;;;;;;;;;;4992203;28;20478;-64
2021/03/07 11:26:02;;;;;;;5.93;5.30;;;;;;;;;;5006741;28;20476;-64
2021/03/07 11:28:29;;;;;;;6.30;5.40;;;;;;;;;;5012215;28;20848;-65
2021/03/07 11:30:55;;;;;;;7.90;6.30;;;;;;;;;;5011986;28;20453;-64
2021/03/07 11:33:22;;;;;;;8.63;6.03;;;;;;;;;;5002838;28;20540;-64
2021/03/07 11:35:49;;;;;;;6.63;5.80;;;;;;;;;;4991962;28;20961;-64
2021/03/07 11:38:15;;;;;;;6.87;5.73;;;;;;;;;;4993031;28;20509;-64
2021/03/07 11:40:43;;;;;;;6.40;5.90;;;;;;;;;;4992532;28;20458;-63
2021/03/07 11:43:09;;;;;;;7.60;6.83;;;;;;;;;;4991469;28;20514;-64
2021/03/07 11:45:36;;;;;;;7.10;5.83;;;;;;;;;;4991901;28;20458;-64
2021/03/07 11:48:02;;;;;;;7.17;6.47;;;;;;;;;;4992565;28;20447;-64
2021/03/07 11:50:29;;;;;;;7.90;7.10;;;;;;;;;;4992259;28;20508;-64
2021/03/07 11:52:56;;;;;;;7.20;6.60;;;;;;;;;;4997056;28;20465;-64
2021/03/07 11:55:22;;;;;;;9.83;8.20;;;;;;;;;;5011401;28;20967;-63
2021/03/07 11:57:50;;;;;;;9.57;8.57;;;;;;;;;;5011902;28;20457;-64
2021/03/07 12:00:17;;;;;;;10.93;8.97;;;;;;;;;;5011854;28;20583;-63
2021/03/07 12:02:44;;;;;;;11.17;10.07;;;;;;;;;;5011473;28;20977;-64
2021/03/07 12:05:11;;;;;;;13.00;10.43;;;;;;;;;;5011757;28;20476;-63
2021/03/07 12:07:37;;;;;;;9.30;8.40;;;;;;;;;;5010741;28;20468;-64
2021/03/07 12:10:05;;;;;;;11.93;9.30;;;;;;;;;;5011366;28;20576;-64
2021/03/07 12:12:31;;;;;;;13.43;10.07;;;;;;;;;;5011691;28;20465;-63
2021/03/07 12:14:59;;;;;;;13.93;10.77;;;;;;;;;;5011574;28;20964;-64
2021/03/07 12:17:25;;;;;;;11.33;10.23;;;;;;;;;;5011986;28;20457;-64
2021/03/07 12:19:52;;;;;;;13.10;10.97;;;;;;;;;;5012669;28;20813;-64
2021/03/07 12:22:19;;;;;;;12.03;10.83;;;;;;;;;;5011849;28;20477;-63
2021/03/07 12:24:45;;;;;;;12.80;10.80;;;;;;;;;;5010311;28;20465;-63
2021/03/07 12:27:12;;;;;;;11.90;10.70;;;;;;;;;;5011265;28;20453;-64
2021/03/07 12:29:38;;;;;;;12.03;10.37;;;;;;;;;;5013663;28;20543;-63
2021/03/07 12:32:06;;;;;;;14.10;11.00;;;;;;;;;;5010912;28;20911;-63
2021/03/07 12:34:34;;;;;;;12.73;11.03;;;;;;;;;;5011615;28;20461;-64
2021/03/07 12:37:00;;;;;;;14.33;11.90;;;;;;;;;;5011016;28;20949;-63
2021/03/07 12:39:27;;;;;;;14.57;11.93;;;;;;;;;;5000803;28;20935;-64
2021/03/07 12:41:53;;;;;;;13.10;11.90;;;;;;;;;;4991909;28;20470;-63
2021/03/07 12:44:20;;;;;;;13.70;11.57;;;;;;;;;;4991994;28;20450;-64
2021/03/07 12:46:47;;;;;;;12.50;11.20;;;;;;;;;;4991779;28;20457;-64
2021/03/07 12:49:14;;;;;;;12.10;10.90;;;;;;;;;;4991792;28;20482;-64
2021/03/07 12:51:41;;;;;;;14.27;12.60;;;;;;;;;;4991813;28;20501;-64
2021/03/07 12:54:08;;;;;;;14.20;12.70;;;;;;;;;;4992652;28;20451;-64
2021/03/07 12:56:35;;;;;;;14.10;12.47;;;;;;;;;;4994979;28;20871;-63
2021/03/07 12:59:02;;;;;;;13.23;11.90;;;;;;;;;;4999750;28;20446;-64
2021/03/07 13:01:28;;;;;;;14.10;12.60;;;;;;;;;;4997999;28;20461;-64
2021/03/07 13:03:55;;;;;;;14.57;12.70;;;;;;;;;;4994804;28;20462;-64
2021/03/07 13:06:22;;;;;;;13.10;11.80;;;;;;;;;;4995100;28;20500;-62
2021/03/07 13:08:49;;;;;;;13.83;12.43;;;;;;;;;;4995371;28;20486;-64
2021/03/07 13:11:16;;;;;;;13.80;12.40;;;;;;;;;;4994801;28;20453;-64
2021/03/07 13:13:42;;;;;;;14.57;12.63;;;;;;;;;;4995439;28;20477;-64
2021/03/07 13:16:09;;;;;;;15.27;13.07;;;;;;;;;;4996210;28;20446;-64
2021/03/07 13:18:36;;;;;;;14.47;12.80;;;;;;;;;;4994773;28;20446;-64
2021/03/07 13:21:03;;;;;;;14.90;13.33;;;;;;;;;;5001478;28;20450;-64
2021/03/07 13:23:31;;;;;;;16.90;13.30;;;;;;;;;;4995304;28;20497;-61
2021/03/07 13:25:58;;;;;;;15.43;12.87;;;;;;;;;;4994644;28;20446;-61
2021/03/07 13:28:24;;;;;;;15.10;13.50;;;;;;;;;;4994776;28;20490;-61
2021/03/07 13:30:51;;;;;;;16.17;13.93;;;;;;;;;;4994600;28;20505;-61
2021/03/07 13:33:18;;;;;;;16.47;14.87;;;;;;;;;;4981943;28;20498;-62
2021/03/07 13:35:44;;;;;;;15.67;14.17;;;;;;;;;;4996815;28;20851;-62
2021/03/07 13:38:11;;;;;;;14.57;13.17;;;;;;;;;;4993150;28;20463;-62
2021/03/07 13:40:40;;;;;;;18.00;14.77;;;;;;;;;;4994789;28;20450;-63
2021/03/07 13:43:06;;;;;;;16.60;14.63;;;;;;;;;;4997318;28;20477;-62
2021/03/07 13:45:34;;;;;;;16.97;15.27;;;;;;;;;;4997900;28;20455;-63
2021/03/07 13:48:00;;;;;;;15.43;12.90;;;;;;;;;;4982137;28;20821;-62
2021/03/07 13:50:28;;;;;;;16.43;14.70;;;;;;;;;;4975840;28;20542;-63
2021/03/07 13:52:54;;;;;;;16.60;14.90;;;;;;;;;;4993730;28;20474;-62
2021/03/07 13:55:21;;;;;;;15.93;14.43;;;;;;;;;;4993897;28;20489;-63
2021/03/07 13:57:48;;;;;;;17.00;15.20;;;;;;;;;;4991844;28;20473;-63
2021/03/07 14:00:16;;;;;;;16.60;14.83;;;;;;;;;;4991304;28;20450;-63
2021/03/07 14:02:43;;;;;;;19.90;14.57;;;;;;;;;;4987682;28;20493;-62
2021/03/07 14:05:10;;;;;;;15.57;13.73;;;;;;;;;;4984062;28;20525;-63
2021/03/07 14:07:37;;;;;;;17.93;15.37;;;;;;;;;;4987145;28;20459;-63
2021/03/07 14:10:04;;;;;;;15.57;14.00;;;;;;;;;;4989991;28;20494;-63
2021/03/07 14:12:31;;;;;;;16.70;14.33;;;;;;;;;;4987824;28;20483;-62
2021/03/07 14:14:58;;;;;;;14.73;13.23;;;;;;;;;;4985965;28;20833;-63
2021/03/07 14:17:25;;;;;;;17.87;16.07;;;;;;;;;;4974340;28;20456;-62
2021/03/07 14:19:51;;;;;;;17.50;15.27;;;;;;;;;;4976150;28;20448;-64
2021/03/07 14:22:18;;;;;;;15.67;13.87;;;;;;;;;;4974166;28;20483;-62
2021/03/07 14:24:45;;;;;;;17.57;14.27;;;;;;;;;;4976363;28;20507;-63
2021/03/07 14:27:11;;;;;;;15.70;14.10;;;;;;;;;;4992871;28;20454;-63
2021/03/07 14:29:38;;;;;;;16.70;14.40;;;;;;;;;;4992305;28;20482;-63
2021/03/07 14:32:06;;;;;;;16.30;14.27;;;;;;;;;;4980285;28;21017;-62
2021/03/07 14:34:33;;;;;;;17.90;14.90;;;;;;;;;;4984820;28;20479;-62
2021/03/07 14:36:59;;;;;;;15.97;14.37;;;;;;;;;;4977011;28;20454;-62
2021/03/07 14:39:28;;;;;;;18.03;13.90;;;;;;;;;;4984328;28;20888;-64
2021/03/07 14:41:54;;;;;;;17.40;15.33;;;;;;;;;;4998029;28;20474;-64